sensor_id;sensor_type;location;lat;lon;timestamp;temperature;humidity
18456;DHT22;9357;49.900;8.208;2022-08-21T00:00:33;20.40;99.90
18456;DHT22;9357;49.900;8.208;2022-08-21T00:02:14;20.30;99.90
18456;DHT22;9357;49.900;8.208;2022-08-21T00:03:48;20.30;99.90
18456;DHT22;9357;49.900;8.208;2022-08-21T00:05:22;20.30;99.90
18456;DHT22;9357;49.900;8.208;2022-08-21T00:06:53;20.30;99.90
18456;DHT22;9357;49.900;8.208;2022-08-21T00:08:26;20.30;99.90
18456;DHT22;9357;49.900;8.208;2022-08-21T00:09:59;20.30;99.90
18456;DHT22;9357;49.900;8.208;2022-08-21T00:11:33;20.30;99.90
18456;DHT22;9357;49.900;8.208;2022-08-21T00:13:07;20.30;99.90
18456;DHT22;9357;49.900;8.208;2022-08-21T00:14:39;20.30;99.90
18456;DHT22;9357;49.900;8.208;2022-08-21T00:16:12;20.30;99.90
18456;DHT22;9357;49.900;8.208;2022-08-21T00:17:46;20.30;99.90
18456;DHT22;9357;49.900;8.208;2022-08-21T00:19:20;20.30;99.90
18456;DHT22;9357;49.900;8.208;2022-08-21T00:20:56;20.30;99.90
18456;DHT22;9357;49.900;8.208;2022-08-21T00:22:29;20.30;99.90
18456;DHT22;9357;49.900;8.208;2022-08-21T00:24:02;20.30;99.90
18456;DHT22;9357;49.900;8.208;2022-08-21T00:25:36;20.20;99.90
18456;DHT22;9357;49.900;8.208;2022-08-21T00:27:09;20.20;99.90
18456;DHT22;9357;49.900;8.208;2022-08-21T00:28:41;20.20;99.90
18456;DHT22;9357;49.900;8.208;2022-08-21T00:30:16;20.20;99.90
18456;DHT22;9357;49.900;8.208;2022-08-21T00:31:54;20.20;99.90
18456;DHT22;9357;49.900;8.208;2022-08-21T00:33:28;20.20;99.90
18456;DHT22;9357;49.900;8.208;2022-08-21T00:35:00;20.20;99.90
18456;DHT22;9357;49.900;8.208;2022-08-21T00:36:33;20.20;99.90
18456;DHT22;9357;49.900;8.208;2022-08-21T00:38:07;20.10;99.90
18456;DHT22;9357;49.900;8.208;2022-08-21T00:39:39;20.10;99.90
18456;DHT22;9357;49.900;8.208;2022-08-21T00:41:12;20.20;99.90
18456;DHT22;9357;49.900;8.208;2022-08-21T00:43:07;20.10;99.90
18456;DHT22;9357;49.900;8.208;2022-08-21T00:44:40;20.10;99.90
18456;DHT22;9357;49.900;8.208;2022-08-21T00:46:13;20.10;99.90
18456;DHT22;9357;49.900;8.208;2022-08-21T00:47:45;20.10;99.90
18456;DHT22;9357;49.900;8.208;2022-08-21T00:49:19;20.10;99.90
18456;DHT22;9357;49.900;8.208;2022-08-21T00:50:58;20.00;99.90
18456;DHT22;9357;49.900;8.208;2022-08-21T00:52:34;20.10;99.90
18456;DHT22;9357;49.900;8.208;2022-08-21T00:54:10;20.10;99.90
18456;DHT22;9357;49.900;8.208;2022-08-21T00:55:50;20.00;99.90
18456;DHT22;9357;49.900;8.208;2022-08-21T00:57:30;20.00;99.90
18456;DHT22;9357;49.900;8.208;2022-08-21T00:59:05;20.00;99.90
18456;DHT22;9357;49.900;8.208;2022-08-21T01:00:41;20.00;99.90
18456;DHT22;9357;49.900;8.208;2022-08-21T01:02:15;20.00;99.90
18456;DHT22;9357;49.900;8.208;2022-08-21T01:03:49;20.00;99.90
18456;DHT22;9357;49.900;8.208;2022-08-21T01:05:23;20.00;99.90
18456;DHT22;9357;49.900;8.208;2022-08-21T01:06:56;20.00;99.90
18456;DHT22;9357;49.900;8.208;2022-08-21T01:08:29;20.00;99.90
18456;DHT22;9357;49.900;8.208;2022-08-21T01:10:02;19.90;99.90
18456;DHT22;9357;49.900;8.208;2022-08-21T01:11:35;19.90;99.90
18456;DHT22;9357;49.900;8.208;2022-08-21T01:13:10;19.90;99.90
18456;DHT22;9357;49.900;8.208;2022-08-21T01:14:44;19.80;99.90
18456;DHT22;9357;49.900;8.208;2022-08-21T01:16:20;19.80;99.90
18456;DHT22;9357;49.900;8.208;2022-08-21T01:17:54;19.70;99.90
18456;DHT22;9357;49.900;8.208;2022-08-21T01:19:27;19.70;99.90
18456;DHT22;9357;49.900;8.208;2022-08-21T01:21:05;19.70;99.90
18456;DHT22;9357;49.900;8.208;2022-08-21T01:22:38;19.70;99.90
18456;DHT22;9357;49.900;8.208;2022-08-21T01:24:12;19.70;99.90
18456;DHT22;9357;49.900;8.208;2022-08-21T01:25:45;19.70;99.90
18456;DHT22;9357;49.900;8.208;2022-08-21T01:27:18;19.70;99.90
18456;DHT22;9357;49.900;8.208;2022-08-21T01:28:57;19.60;99.90
18456;DHT22;9357;49.900;8.208;2022-08-21T01:30:34;19.70;99.90
18456;DHT22;9357;49.900;8.208;2022-08-21T01:32:10;19.60;99.90
18456;DHT22;9357;49.900;8.208;2022-08-21T01:33:42;19.60;99.90
18456;DHT22;9357;49.900;8.208;2022-08-21T01:35:18;19.60;99.90
18456;DHT22;9357;49.900;8.208;2022-08-21T01:36:52;19.60;99.90
18456;DHT22;9357;49.900;8.208;2022-08-21T01:38:26;19.60;99.90
18456;DHT22;9357;49.900;8.208;2022-08-21T01:39:59;19.60;99.90
18456;DHT22;9357;49.900;8.208;2022-08-21T01:41:32;19.60;99.90
18456;DHT22;9357;49.900;8.208;2022-08-21T01:43:05;19.60;99.90
18456;DHT22;9357;49.900;8.208;2022-08-21T01:44:39;19.60;99.90
18456;DHT22;9357;49.900;8.208;2022-08-21T01:46:12;19.60;99.90
18456;DHT22;9357;49.900;8.208;2022-08-21T01:47:46;19.60;99.90
18456;DHT22;9357;49.900;8.208;2022-08-21T01:49:19;19.60;99.90
18456;DHT22;9357;49.900;8.208;2022-08-21T01:50:52;19.60;99.90
18456;DHT22;9357;49.900;8.208;2022-08-21T01:52:29;19.60;99.90
18456;DHT22;9357;49.900;8.208;2022-08-21T01:54:01;19.60;99.90
18456;DHT22;9357;49.900;8.208;2022-08-21T01:55:33;19.60;99.90
18456;DHT22;9357;49.900;8.208;2022-08-21T01:57:07;19.60;99.90
18456;DHT22;9357;49.900;8.208;2022-08-21T01:58:41;19.50;99.90
18456;DHT22;9357;49.900;8.208;2022-08-21T02:00:16;19.50;99.90
18456;DHT22;9357;49.900;8.208;2022-08-21T02:01:50;19.40;99.90
18456;DHT22;9357;49.900;8.208;2022-08-21T02:03:23;19.40;99.90
18456;DHT22;9357;49.900;8.208;2022-08-21T02:05:08;19.30;99.90
18456;DHT22;9357;49.900;8.208;2022-08-21T02:06:41;19.30;99.90
18456;DHT22;9357;49.900;8.208;2022-08-21T02:08:15;19.40;99.90
18456;DHT22;9357;49.900;8.208;2022-08-21T02:09:48;19.30;99.90
18456;DHT22;9357;49.900;8.208;2022-08-21T02:11:21;19.40;99.90
18456;DHT22;9357;49.900;8.208;2022-08-21T02:12:54;19.40;99.90
18456;DHT22;9357;49.900;8.208;2022-08-21T02:14:26;19.40;99.90
18456;DHT22;9357;49.900;8.208;2022-08-21T02:16:04;19.40;99.90
18456;DHT22;9357;49.900;8.208;2022-08-21T02:17:39;19.40;99.90
18456;DHT22;9357;49.900;8.208;2022-08-21T02:19:13;19.40;99.90
18456;DHT22;9357;49.900;8.208;2022-08-21T02:20:48;19.30;99.90
18456;DHT22;9357;49.900;8.208;2022-08-21T02:22:26;19.30;99.90
18456;DHT22;9357;49.900;8.208;2022-08-21T02:24:01;19.40;99.90
18456;DHT22;9357;49.900;8.208;2022-08-21T02:25:34;19.30;99.90
18456;DHT22;9357;49.900;8.208;2022-08-21T02:27:06;19.30;99.90
18456;DHT22;9357;49.900;8.208;2022-08-21T02:28:41;19.20;99.90
18456;DHT22;9357;49.900;8.208;2022-08-21T02:30:15;19.20;99.90
18456;DHT22;9357;49.900;8.208;2022-08-21T02:31:49;19.20;99.90
18456;DHT22;9357;49.900;8.208;2022-08-21T02:33:22;19.20;99.90
18456;DHT22;9357;49.900;8.208;2022-08-21T02:34:55;19.20;99.90
18456;DHT22;9357;49.900;8.208;2022-08-21T02:36:27;19.20;99.90
18456;DHT22;9357;49.900;8.208;2022-08-21T02:38:02;19.10;99.90
18456;DHT22;9357;49.900;8.208;2022-08-21T02:39:37;19.10;99.90
18456;DHT22;9357;49.900;8.208;2022-08-21T02:41:11;19.10;99.90
18456;DHT22;9357;49.900;8.208;2022-08-21T02:42:45;19.00;99.90
18456;DHT22;9357;49.900;8.208;2022-08-21T02:44:17;19.00;99.90
18456;DHT22;9357;49.900;8.208;2022-08-21T02:45:51;19.00;99.90
18456;DHT22;9357;49.900;8.208;2022-08-21T02:47:24;19.00;99.90
18456;DHT22;9357;49.900;8.208;2022-08-21T02:48:57;18.90;99.90
18456;DHT22;9357;49.900;8.208;2022-08-21T02:50:32;18.90;99.90
18456;DHT22;9357;49.900;8.208;2022-08-21T02:52:05;18.80;99.90
18456;DHT22;9357;49.900;8.208;2022-08-21T02:53:39;18.80;99.90
18456;DHT22;9357;49.900;8.208;2022-08-21T02:55:13;18.80;99.90
18456;DHT22;9357;49.900;8.208;2022-08-21T02:56:46;18.80;99.90
18456;DHT22;9357;49.900;8.208;2022-08-21T02:58:20;18.70;99.90
18456;DHT22;9357;49.900;8.208;2022-08-21T02:59:53;18.70;99.90
18456;DHT22;9357;49.900;8.208;2022-08-21T03:01:26;18.60;99.90
18456;DHT22;9357;49.900;8.208;2022-08-21T03:02:59;18.60;99.90
18456;DHT22;9357;49.900;8.208;2022-08-21T03:04:32;18.60;99.90
18456;DHT22;9357;49.900;8.208;2022-08-21T03:06:06;18.50;99.90
18456;DHT22;9357;49.900;8.208;2022-08-21T03:07:41;18.50;99.90
18456;DHT22;9357;49.900;8.208;2022-08-21T03:09:14;18.40;99.90
18456;DHT22;9357;49.900;8.208;2022-08-21T03:10:51;18.40;99.90
18456;DHT22;9357;49.900;8.208;2022-08-21T03:12:23;18.40;99.90
18456;DHT22;9357;49.900;8.208;2022-08-21T03:14:00;18.40;99.90
18456;DHT22;9357;49.900;8.208;2022-08-21T03:15:33;18.30;99.90
18456;DHT22;9357;49.900;8.208;2022-08-21T03:17:05;18.30;99.90
18456;DHT22;9357;49.900;8.208;2022-08-21T03:18:38;18.30;99.90
18456;DHT22;9357;49.900;8.208;2022-08-21T03:20:12;18.30;99.90
18456;DHT22;9357;49.900;8.208;2022-08-21T03:21:45;18.20;99.90
18456;DHT22;9357;49.900;8.208;2022-08-21T03:23:19;18.20;99.90
18456;DHT22;9357;49.900;8.208;2022-08-21T03:24:52;18.20;99.90
18456;DHT22;9357;49.900;8.208;2022-08-21T03:26:26;18.10;99.90
18456;DHT22;9357;49.900;8.208;2022-08-21T03:28:00;18.10;99.90
18456;DHT22;9357;49.900;8.208;2022-08-21T03:29:31;18.10;99.90
18456;DHT22;9357;49.900;8.208;2022-08-21T03:31:04;18.10;99.90
18456;DHT22;9357;49.900;8.208;2022-08-21T03:32:37;18.10;99.90
18456;DHT22;9357;49.900;8.208;2022-08-21T03:34:09;18.00;99.90
18456;DHT22;9357;49.900;8.208;2022-08-21T03:35:43;18.00;99.90
18456;DHT22;9357;49.900;8.208;2022-08-21T03:37:16;18.00;99.90
18456;DHT22;9357;49.900;8.208;2022-08-21T03:38:50;18.00;99.90
18456;DHT22;9357;49.900;8.208;2022-08-21T03:40:22;18.00;99.90
18456;DHT22;9357;49.900;8.208;2022-08-21T03:41:57;18.10;99.90
18456;DHT22;9357;49.900;8.208;2022-08-21T03:43:31;18.00;99.90
18456;DHT22;9357;49.900;8.208;2022-08-21T03:45:05;18.00;99.90
18456;DHT22;9357;49.900;8.208;2022-08-21T03:46:38;18.00;99.90
18456;DHT22;9357;49.900;8.208;2022-08-21T03:48:11;18.00;99.90
18456;DHT22;9357;49.900;8.208;2022-08-21T03:49:44;18.00;99.90
18456;DHT22;9357;49.900;8.208;2022-08-21T03:51:16;18.00;99.90
18456;DHT22;9357;49.900;8.208;2022-08-21T03:52:49;18.00;99.90
18456;DHT22;9357;49.900;8.208;2022-08-21T03:54:21;18.00;99.90
18456;DHT22;9357;49.900;8.208;2022-08-21T03:55:54;17.90;99.90
18456;DHT22;9357;49.900;8.208;2022-08-21T03:57:28;17.90;99.90
18456;DHT22;9357;49.900;8.208;2022-08-21T03:59:01;17.90;99.90
18456;DHT22;9357;49.900;8.208;2022-08-21T04:00:35;17.90;99.90
18456;DHT22;9357;49.900;8.208;2022-08-21T04:02:09;17.90;99.90
18456;DHT22;9357;49.900;8.208;2022-08-21T04:03:42;17.90;99.90
18456;DHT22;9357;49.900;8.208;2022-08-21T04:05:16;18.00;99.90
18456;DHT22;9357;49.900;8.208;2022-08-21T04:06:59;18.00;99.90
18456;DHT22;9357;49.900;8.208;2022-08-21T04:08:31;18.00;99.90
18456;DHT22;9357;49.900;8.208;2022-08-21T04:10:06;18.00;99.90
18456;DHT22;9357;49.900;8.208;2022-08-21T04:11:40;18.00;99.90
18456;DHT22;9357;49.900;8.208;2022-08-21T04:13:14;18.00;99.90
18456;DHT22;9357;49.900;8.208;2022-08-21T04:14:46;18.00;99.90
18456;DHT22;9357;49.900;8.208;2022-08-21T04:16:19;17.90;99.90
18456;DHT22;9357;49.900;8.208;2022-08-21T04:17:52;17.90;99.90
18456;DHT22;9357;49.900;8.208;2022-08-21T04:19:25;17.90;99.90
18456;DHT22;9357;49.900;8.208;2022-08-21T04:20:58;17.90;99.90
18456;DHT22;9357;49.900;8.208;2022-08-21T04:22:32;17.90;99.90
18456;DHT22;9357;49.900;8.208;2022-08-21T04:24:04;17.80;99.90
18456;DHT22;9357;49.900;8.208;2022-08-21T04:25:38;17.80;99.90
18456;DHT22;9357;49.900;8.208;2022-08-21T04:27:11;17.80;99.90
18456;DHT22;9357;49.900;8.208;2022-08-21T04:28:45;17.70;99.90
18456;DHT22;9357;49.900;8.208;2022-08-21T04:30:18;17.70;99.90
18456;DHT22;9357;49.900;8.208;2022-08-21T04:31:59;17.70;99.90
18456;DHT22;9357;49.900;8.208;2022-08-21T04:33:31;17.70;99.90
18456;DHT22;9357;49.900;8.208;2022-08-21T04:35:08;17.70;99.90
18456;DHT22;9357;49.900;8.208;2022-08-21T04:36:40;17.60;99.90
18456;DHT22;9357;49.900;8.208;2022-08-21T04:38:13;17.60;99.90
18456;DHT22;9357;49.900;8.208;2022-08-21T04:39:45;17.60;99.90
18456;DHT22;9357;49.900;8.208;2022-08-21T04:41:23;17.60;99.90
18456;DHT22;9357;49.900;8.208;2022-08-21T04:43:02;17.60;99.90
18456;DHT22;9357;49.900;8.208;2022-08-21T04:44:37;17.60;99.90
18456;DHT22;9357;49.900;8.208;2022-08-21T04:46:10;17.50;99.90
18456;DHT22;9357;49.900;8.208;2022-08-21T04:47:44;17.50;99.90
18456;DHT22;9357;49.900;8.208;2022-08-21T04:49:23;17.50;99.90
18456;DHT22;9357;49.900;8.208;2022-08-21T04:50:59;17.50;99.90
18456;DHT22;9357;49.900;8.208;2022-08-21T04:52:34;17.50;99.90
18456;DHT22;9357;49.900;8.208;2022-08-21T04:54:09;17.50;99.90
18456;DHT22;9357;49.900;8.208;2022-08-21T04:55:43;17.50;99.90
18456;DHT22;9357;49.900;8.208;2022-08-21T04:57:17;17.50;99.90
18456;DHT22;9357;49.900;8.208;2022-08-21T04:58:51;17.50;99.90
18456;DHT22;9357;49.900;8.208;2022-08-21T05:00:26;17.50;99.90
18456;DHT22;9357;49.900;8.208;2022-08-21T05:01:59;17.40;99.90
18456;DHT22;9357;49.900;8.208;2022-08-21T05:03:34;17.50;99.90
18456;DHT22;9357;49.900;8.208;2022-08-21T05:05:08;17.50;99.90
18456;DHT22;9357;49.900;8.208;2022-08-21T05:06:45;17.40;99.90
18456;DHT22;9357;49.900;8.208;2022-08-21T05:08:21;17.40;99.90
18456;DHT22;9357;49.900;8.208;2022-08-21T05:09:55;17.50;99.90
18456;DHT22;9357;49.900;8.208;2022-08-21T05:11:30;17.40;99.90
18456;DHT22;9357;49.900;8.208;2022-08-21T05:13:03;17.40;99.90
18456;DHT22;9357;49.900;8.208;2022-08-21T05:14:36;17.40;99.90
18456;DHT22;9357;49.900;8.208;2022-08-21T05:16:11;17.40;99.90
18456;DHT22;9357;49.900;8.208;2022-08-21T05:17:43;17.40;99.90
18456;DHT22;9357;49.900;8.208;2022-08-21T05:19:31;17.40;99.90
18456;DHT22;9357;49.900;8.208;2022-08-21T05:21:04;17.40;99.90
18456;DHT22;9357;49.900;8.208;2022-08-21T05:22:37;17.40;99.90
18456;DHT22;9357;49.900;8.208;2022-08-21T05:24:10;17.40;99.90
18456;DHT22;9357;49.900;8.208;2022-08-21T05:25:44;17.40;99.90
18456;DHT22;9357;49.900;8.208;2022-08-21T05:27:16;17.40;99.90
18456;DHT22;9357;49.900;8.208;2022-08-21T05:28:50;17.40;99.90
18456;DHT22;9357;49.900;8.208;2022-08-21T05:30:23;17.50;99.90
18456;DHT22;9357;49.900;8.208;2022-08-21T05:31:57;17.40;99.90
18456;DHT22;9357;49.900;8.208;2022-08-21T05:33:30;17.40;99.90
18456;DHT22;9357;49.900;8.208;2022-08-21T05:35:07;17.50;99.90
18456;DHT22;9357;49.900;8.208;2022-08-21T05:36:40;17.50;99.90
18456;DHT22;9357;49.900;8.208;2022-08-21T05:38:12;17.50;99.90
18456;DHT22;9357;49.900;8.208;2022-08-21T05:39:49;17.50;99.90
18456;DHT22;9357;49.900;8.208;2022-08-21T05:41:41;17.50;99.90
18456;DHT22;9357;49.900;8.208;2022-08-21T05:43:15;17.60;99.90
18456;DHT22;9357;49.900;8.208;2022-08-21T05:44:47;17.60;99.90
18456;DHT22;9357;49.900;8.208;2022-08-21T05:46:20;17.60;99.90
18456;DHT22;9357;49.900;8.208;2022-08-21T05:47:55;17.60;99.90
18456;DHT22;9357;49.900;8.208;2022-08-21T05:49:27;17.70;99.90
18456;DHT22;9357;49.900;8.208;2022-08-21T05:51:04;17.70;99.90
18456;DHT22;9357;49.900;8.208;2022-08-21T05:52:37;17.70;99.90
18456;DHT22;9357;49.900;8.208;2022-08-21T05:54:10;17.70;99.90
18456;DHT22;9357;49.900;8.208;2022-08-21T05:55:44;17.70;99.90
18456;DHT22;9357;49.900;8.208;2022-08-21T05:57:17;17.70;99.90
18456;DHT22;9357;49.900;8.208;2022-08-21T05:58:50;17.70;99.90
18456;DHT22;9357;49.900;8.208;2022-08-21T06:00:23;17.70;99.90
18456;DHT22;9357;49.900;8.208;2022-08-21T06:01:56;17.70;99.90
18456;DHT22;9357;49.900;8.208;2022-08-21T06:03:37;17.70;99.90
18456;DHT22;9357;49.900;8.208;2022-08-21T06:05:10;17.70;99.90
18456;DHT22;9357;49.900;8.208;2022-08-21T06:06:47;17.80;99.90
18456;DHT22;9357;49.900;8.208;2022-08-21T06:08:20;17.80;99.90
18456;DHT22;9357;49.900;8.208;2022-08-21T06:09:52;17.80;99.90
18456;DHT22;9357;49.900;8.208;2022-08-21T06:11:25;17.90;99.90
18456;DHT22;9357;49.900;8.208;2022-08-21T06:12:59;17.90;99.90
18456;DHT22;9357;49.900;8.208;2022-08-21T06:14:33;17.90;99.90
18456;DHT22;9357;49.900;8.208;2022-08-21T06:16:08;18.00;99.90
18456;DHT22;9357;49.900;8.208;2022-08-21T06:17:40;18.00;99.90
18456;DHT22;9357;49.900;8.208;2022-08-21T06:19:14;18.00;99.90
18456;DHT22;9357;49.900;8.208;2022-08-21T06:20:47;18.10;99.90
18456;DHT22;9357;49.900;8.208;2022-08-21T06:22:20;18.10;99.90
18456;DHT22;9357;49.900;8.208;2022-08-21T06:23:53;18.10;99.90
18456;DHT22;9357;49.900;8.208;2022-08-21T06:25:27;18.10;99.90
18456;DHT22;9357;49.900;8.208;2022-08-21T06:27:04;18.10;99.90
18456;DHT22;9357;49.900;8.208;2022-08-21T06:28:41;18.10;99.90
18456;DHT22;9357;49.900;8.208;2022-08-21T06:30:14;18.10;99.90
18456;DHT22;9357;49.900;8.208;2022-08-21T06:31:47;18.20;99.90
18456;DHT22;9357;49.900;8.208;2022-08-21T06:33:21;18.10;99.90
18456;DHT22;9357;49.900;8.208;2022-08-21T06:34:55;18.10;99.90
18456;DHT22;9357;49.900;8.208;2022-08-21T06:36:28;18.10;99.90
18456;DHT22;9357;49.900;8.208;2022-08-21T06:38:01;18.20;99.90
18456;DHT22;9357;49.900;8.208;2022-08-21T06:39:34;18.20;99.90
18456;DHT22;9357;49.900;8.208;2022-08-21T06:41:07;18.20;99.90
18456;DHT22;9357;49.900;8.208;2022-08-21T06:42:40;18.30;99.90
18456;DHT22;9357;49.900;8.208;2022-08-21T06:44:16;18.30;99.90
18456;DHT22;9357;49.900;8.208;2022-08-21T06:45:49;18.40;99.90
18456;DHT22;9357;49.900;8.208;2022-08-21T06:47:22;18.40;99.90
18456;DHT22;9357;49.900;8.208;2022-08-21T06:48:56;18.40;99.90
18456;DHT22;9357;49.900;8.208;2022-08-21T06:50:30;18.50;99.90
18456;DHT22;9357;49.900;8.208;2022-08-21T06:52:03;18.50;99.90
18456;DHT22;9357;49.900;8.208;2022-08-21T06:53:36;18.50;99.90
18456;DHT22;9357;49.900;8.208;2022-08-21T06:55:10;18.50;99.90
18456;DHT22;9357;49.900;8.208;2022-08-21T06:56:51;18.50;99.90
18456;DHT22;9357;49.900;8.208;2022-08-21T06:58:24;18.50;99.90
18456;DHT22;9357;49.900;8.208;2022-08-21T06:59:57;18.60;99.90
18456;DHT22;9357;49.900;8.208;2022-08-21T07:01:29;18.60;99.90
18456;DHT22;9357;49.900;8.208;2022-08-21T07:03:02;18.70;99.90
18456;DHT22;9357;49.900;8.208;2022-08-21T07:04:34;18.70;99.90
18456;DHT22;9357;49.900;8.208;2022-08-21T07:06:09;18.70;99.90
18456;DHT22;9357;49.900;8.208;2022-08-21T07:07:43;18.80;99.90
18456;DHT22;9357;49.900;8.208;2022-08-21T07:09:16;18.80;99.90
18456;DHT22;9357;49.900;8.208;2022-08-21T07:10:57;18.90;99.90
18456;DHT22;9357;49.900;8.208;2022-08-21T07:12:30;18.90;99.90
18456;DHT22;9357;49.900;8.208;2022-08-21T07:14:04;19.00;99.90
18456;DHT22;9357;49.900;8.208;2022-08-21T07:15:36;19.00;99.90
18456;DHT22;9357;49.900;8.208;2022-08-21T07:17:09;19.10;99.90
18456;DHT22;9357;49.900;8.208;2022-08-21T07:18:42;19.10;99.90
18456;DHT22;9357;49.900;8.208;2022-08-21T07:20:15;19.20;99.90
18456;DHT22;9357;49.900;8.208;2022-08-21T07:21:48;19.30;99.90
18456;DHT22;9357;49.900;8.208;2022-08-21T07:23:24;19.50;99.90
18456;DHT22;9357;49.900;8.208;2022-08-21T07:24:57;19.60;99.90
18456;DHT22;9357;49.900;8.208;2022-08-21T07:26:30;19.80;99.90
18456;DHT22;9357;49.900;8.208;2022-08-21T07:28:03;20.10;99.90
18456;DHT22;9357;49.900;8.208;2022-08-21T07:29:36;20.40;99.90
18456;DHT22;9357;49.900;8.208;2022-08-21T07:31:10;20.70;99.90
18456;DHT22;9357;49.900;8.208;2022-08-21T07:32:45;21.10;99.90
18456;DHT22;9357;49.900;8.208;2022-08-21T07:34:20;21.50;99.90
18456;DHT22;9357;49.900;8.208;2022-08-21T07:35:53;21.80;99.90
18456;DHT22;9357;49.900;8.208;2022-08-21T07:37:27;22.10;99.90
18456;DHT22;9357;49.900;8.208;2022-08-21T07:39:00;22.40;99.90
18456;DHT22;9357;49.900;8.208;2022-08-21T07:40:33;22.70;99.90
18456;DHT22;9357;49.900;8.208;2022-08-21T07:42:06;23.00;99.90
18456;DHT22;9357;49.900;8.208;2022-08-21T07:43:39;23.30;99.90
18456;DHT22;9357;49.900;8.208;2022-08-21T07:45:18;23.60;99.90
18456;DHT22;9357;49.900;8.208;2022-08-21T07:46:51;23.80;99.90
18456;DHT22;9357;49.900;8.208;2022-08-21T07:48:24;24.00;99.90
18456;DHT22;9357;49.900;8.208;2022-08-21T07:49:57;24.20;99.90
18456;DHT22;9357;49.900;8.208;2022-08-21T07:51:29;24.50;99.90
18456;DHT22;9357;49.900;8.208;2022-08-21T07:53:04;24.80;99.90
18456;DHT22;9357;49.900;8.208;2022-08-21T07:54:36;25.00;99.90
18456;DHT22;9357;49.900;8.208;2022-08-21T07:56:09;25.20;99.90
18456;DHT22;9357;49.900;8.208;2022-08-21T07:57:43;25.40;99.90
18456;DHT22;9357;49.900;8.208;2022-08-21T07:59:16;25.60;99.90
18456;DHT22;9357;49.900;8.208;2022-08-21T08:00:49;25.90;99.90
18456;DHT22;9357;49.900;8.208;2022-08-21T08:02:26;26.10;99.90
18456;DHT22;9357;49.900;8.208;2022-08-21T08:03:59;26.40;99.90
18456;DHT22;9357;49.900;8.208;2022-08-21T08:05:32;26.70;99.90
18456;DHT22;9357;49.900;8.208;2022-08-21T08:07:06;26.90;99.90
18456;DHT22;9357;49.900;8.208;2022-08-21T08:08:41;27.20;99.90
18456;DHT22;9357;49.900;8.208;2022-08-21T08:10:15;27.30;99.90
18456;DHT22;9357;49.900;8.208;2022-08-21T08:11:48;27.50;99.90
18456;DHT22;9357;49.900;8.208;2022-08-21T08:13:21;27.70;99.90
18456;DHT22;9357;49.900;8.208;2022-08-21T08:14:53;27.90;99.90
18456;DHT22;9357;49.900;8.208;2022-08-21T08:16:26;28.10;99.90
18456;DHT22;9357;49.900;8.208;2022-08-21T08:17:59;28.20;99.90
18456;DHT22;9357;49.900;8.208;2022-08-21T08:19:32;28.30;99.90
18456;DHT22;9357;49.900;8.208;2022-08-21T08:21:05;28.50;99.90
18456;DHT22;9357;49.900;8.208;2022-08-21T08:22:39;28.80;99.90
18456;DHT22;9357;49.900;8.208;2022-08-21T08:24:14;29.00;99.90
18456;DHT22;9357;49.900;8.208;2022-08-21T08:25:50;29.20;99.90
18456;DHT22;9357;49.900;8.208;2022-08-21T08:27:22;29.40;99.90
18456;DHT22;9357;49.900;8.208;2022-08-21T08:28:55;29.60;99.90
18456;DHT22;9357;49.900;8.208;2022-08-21T08:30:28;29.80;99.90
18456;DHT22;9357;49.900;8.208;2022-08-21T08:32:04;29.90;99.90
18456;DHT22;9357;49.900;8.208;2022-08-21T08:33:38;30.10;99.90
18456;DHT22;9357;49.900;8.208;2022-08-21T08:35:12;30.20;99.90
18456;DHT22;9357;49.900;8.208;2022-08-21T08:36:45;30.40;99.90
18456;DHT22;9357;49.900;8.208;2022-08-21T08:38:22;30.60;99.90
18456;DHT22;9357;49.900;8.208;2022-08-21T08:39:56;30.70;99.90
18456;DHT22;9357;49.900;8.208;2022-08-21T08:41:30;30.80;99.90
18456;DHT22;9357;49.900;8.208;2022-08-21T08:43:03;30.80;99.90
18456;DHT22;9357;49.900;8.208;2022-08-21T08:44:37;30.90;99.90
18456;DHT22;9357;49.900;8.208;2022-08-21T08:46:13;30.90;99.90
18456;DHT22;9357;49.900;8.208;2022-08-21T08:47:50;30.90;99.90
18456;DHT22;9357;49.900;8.208;2022-08-21T08:49:31;31.00;99.90
18456;DHT22;9357;49.900;8.208;2022-08-21T08:51:12;31.10;99.90
18456;DHT22;9357;49.900;8.208;2022-08-21T08:52:49;31.30;99.90
18456;DHT22;9357;49.900;8.208;2022-08-21T08:54:28;31.40;99.90
18456;DHT22;9357;49.900;8.208;2022-08-21T08:56:04;31.40;99.90
18456;DHT22;9357;49.900;8.208;2022-08-21T08:57:42;31.50;99.90
18456;DHT22;9357;49.900;8.208;2022-08-21T08:59:25;31.60;99.90
18456;DHT22;9357;49.900;8.208;2022-08-21T09:01:01;31.70;99.90
18456;DHT22;9357;49.900;8.208;2022-08-21T09:02:38;31.80;99.90
18456;DHT22;9357;49.900;8.208;2022-08-21T09:04:13;32.00;99.90
18456;DHT22;9357;49.900;8.208;2022-08-21T09:05:49;32.00;99.90
18456;DHT22;9357;49.900;8.208;2022-08-21T09:07:35;31.90;99.40
18456;DHT22;9357;49.900;8.208;2022-08-21T09:09:19;31.70;99.90
18456;DHT22;9357;49.900;8.208;2022-08-21T09:11:00;31.70;99.90
18456;DHT22;9357;49.900;8.208;2022-08-21T09:12:42;31.80;99.60
18456;DHT22;9357;49.900;8.208;2022-08-21T09:14:26;31.90;98.20
18456;DHT22;9357;49.900;8.208;2022-08-21T09:16:13;31.90;98.00
18456;DHT22;9357;49.900;8.208;2022-08-21T09:18:03;31.90;97.40
18456;DHT22;9357;49.900;8.208;2022-08-21T09:19:53;31.80;98.00
18456;DHT22;9357;49.900;8.208;2022-08-21T09:21:46;31.80;97.00
18456;DHT22;9357;49.900;8.208;2022-08-21T09:23:28;31.90;97.90
18456;DHT22;9357;49.900;8.208;2022-08-21T09:25:08;31.90;96.10
18456;DHT22;9357;49.900;8.208;2022-08-21T09:26:47;32.00;97.20
18456;DHT22;9357;49.900;8.208;2022-08-21T09:28:26;32.20;96.90
18456;DHT22;9357;49.900;8.208;2022-08-21T09:29:59;32.20;96.80
18456;DHT22;9357;49.900;8.208;2022-08-21T09:31:35;32.20;95.30
18456;DHT22;9357;49.900;8.208;2022-08-21T09:33:11;32.20;95.60
18456;DHT22;9357;49.900;8.208;2022-08-21T09:34:56;32.20;96.70
18456;DHT22;9357;49.900;8.208;2022-08-21T09:36:37;32.30;93.90
18456;DHT22;9357;49.900;8.208;2022-08-21T09:38:10;32.10;94.50
18456;DHT22;9357;49.900;8.208;2022-08-21T09:39:43;31.90;93.70
18456;DHT22;9357;49.900;8.208;2022-08-21T09:41:26;31.70;95.00
18456;DHT22;9357;49.900;8.208;2022-08-21T09:43:02;31.70;95.50
18456;DHT22;9357;49.900;8.208;2022-08-21T09:44:38;31.80;95.80
18456;DHT22;9357;49.900;8.208;2022-08-21T09:46:21;31.80;94.40
18456;DHT22;9357;49.900;8.208;2022-08-21T09:47:54;31.90;94.00
18456;DHT22;9357;49.900;8.208;2022-08-21T09:49:28;31.80;94.20
18456;DHT22;9357;49.900;8.208;2022-08-21T09:51:07;31.80;94.10
18456;DHT22;9357;49.900;8.208;2022-08-21T09:52:47;31.90;94.70
18456;DHT22;9357;49.900;8.208;2022-08-21T09:54:27;32.00;95.30
18456;DHT22;9357;49.900;8.208;2022-08-21T09:56:04;32.00;93.90
18456;DHT22;9357;49.900;8.208;2022-08-21T09:58:01;31.90;93.10
18456;DHT22;9357;49.900;8.208;2022-08-21T09:59:34;31.60;92.20
18456;DHT22;9357;49.900;8.208;2022-08-21T10:01:15;31.40;93.20
18456;DHT22;9357;49.900;8.208;2022-08-21T10:02:48;31.20;92.70
18456;DHT22;9357;49.900;8.208;2022-08-21T10:04:23;31.00;92.00
18456;DHT22;9357;49.900;8.208;2022-08-21T10:05:58;30.70;92.30
18456;DHT22;9357;49.900;8.208;2022-08-21T10:07:37;30.50;93.80